Time;durP1;ratioP1;P1;durP2;ratioP2;P2;SDS_P1;SDS_P2;PMS_P1;PMS_P2;Temp;Humidity;BMP_temperature;BMP_pressure;BME280_temperature;BME280_humidity;BME280_pressure;Samples;Min_cycle;Max_cycle;Signal;HPM_P1;HPM_P2
2023/06/24 00:00:52;;;;;;;3.60;2.63;;;17.80;98.90;;;18.53;100.00;98980.19;5024447;28;20499;-84
2023/06/24 00:03:21;;;;;;;4.03;3.17;;;17.80;98.90;;;18.49;100.00;98978.16;5024046;28;20478;-84
2023/06/24 00:05:50;;;;;;;7.97;3.33;;;17.80;98.70;;;18.44;100.00;98983.28;5024110;28;20482;-84
2023/06/24 00:08:20;;;;;;;4.30;3.03;;;17.80;99.10;;;18.38;100.00;98984.13;5029147;28;20466;-84
2023/06/24 00:10:52;;;;;;;7.37;3.30;;;17.70;99.00;;;18.39;100.00;98980.47;5030001;28;20489;-84
2023/06/24 00:13:21;;;;;;;4.43;3.03;;;17.70;99.10;;;18.39;100.00;98981.28;5028514;28;20520;-84
2023/06/24 00:15:50;;;;;;;10.63;3.20;;;17.70;99.00;;;18.34;100.00;98972.34;5027615;28;20900;-84
2023/06/24 00:18:24;;;;;;;4.80;3.27;;;17.70;99.20;;;18.27;100.00;98980.34;5028862;28;20454;-85
2023/06/24 00:20:53;;;;;;;8.50;3.00;;;17.60;99.20;;;18.25;100.00;98974.44;5027460;28;20478;-84
2023/06/24 00:23:25;;;;;;;5.10;3.40;;;17.60;99.40;;;18.18;100.00;98986.09;5028553;28;20465;-84
2023/06/24 00:25:57;;;;;;;3.50;2.90;;;17.50;99.30;;;18.22;100.00;98977.53;5029059;28;20470;-84
2023/06/24 00:28:26;;;;;;;4.97;3.60;;;17.50;99.40;;;18.24;100.00;98983.41;5043097;28;20832;-85
2023/06/24 00:30:55;;;;;;;13.73;3.10;;;17.50;99.30;;;18.23;100.00;98980.97;5027905;28;20481;-84
2023/06/24 00:33:25;;;;;;;6.13;3.43;;;17.50;99.30;;;18.25;100.00;98985.03;5027796;28;20461;-84
2023/06/24 00:35:54;;;;;;;6.33;3.20;;;17.50;99.40;;;18.30;100.00;98987.03;5026733;28;20477;-84
2023/06/24 00:38:24;;;;;;;5.70;3.13;;;17.50;99.30;;;18.24;100.00;98988.72;5027428;28;20465;-84
2023/06/24 00:40:54;;;;;;;5.93;3.37;;;17.50;99.30;;;18.20;100.00;98997.28;5026067;28;20578;-84
2023/06/24 00:43:23;;;;;;;3.83;3.30;;;17.40;99.40;;;18.21;100.00;98993.63;5027985;28;20464;-84
2023/06/24 00:45:52;;;;;;;6.67;3.27;;;17.40;99.60;;;18.22;100.00;98995.25;5024179;28;20457;-84
2023/06/24 00:48:22;;;;;;;5.63;3.40;;;17.40;99.40;;;18.17;100.00;98993.22;5028611;28;20453;-85
2023/06/24 00:50:51;;;;;;;4.30;3.03;;;17.40;99.50;;;18.15;100.00;98992.63;5026966;28;20500;-85
2023/06/24 00:53:24;;;;;;;4.00;3.53;;;17.40;99.60;;;18.05;100.00;98989.59;5026501;28;20464;-84
2023/06/24 00:56:01;;;;;;;11.43;3.60;;;17.40;99.50;;;18.03;100.00;98987.19;5027508;28;20943;-84
2023/06/24 00:58:32;;;;;;;3.20;2.77;;;17.30;99.60;;;17.99;100.00;98988.63;5025305;28;21075;-84
2023/06/24 01:01:01;;;;;;;4.50;3.30;;;17.30;99.70;;;17.98;100.00;98983.53;5025966;28;20465;-84
2023/06/24 01:03:31;;;;;;;6.00;3.43;;;17.30;99.90;;;17.94;100.00;98982.34;5025992;28;20474;-84
2023/06/24 01:06:02;;;;;;;7.20;3.47;;;17.20;99.60;;;17.82;100.00;98986.66;5025043;28;20454;-84
2023/06/24 01:08:31;;;;;;;5.43;3.33;;;17.20;99.60;;;17.77;100.00;98986.50;5026576;28;20961;-84
2023/06/24 01:11:02;;;;;;;4.10;3.20;;;17.10;99.80;;;17.82;100.00;98986.66;5026617;28;20474;-84
2023/06/24 01:13:32;;;;;;;4.83;3.40;;;17.10;99.70;;;17.82;100.00;98995.44;5023065;28;21024;-84
2023/06/24 01:16:10;;;;;;;4.53;3.23;;;17.10;99.90;;;17.74;100.00;98986.91;5024802;28;20470;-84
2023/06/24 01:18:47;;;;;;;7.50;3.60;;;17.00;99.90;;;17.65;100.00;98988.97;5026883;28;20553;-83
2023/06/24 01:21:31;;;;;;;4.90;3.07;;;17.00;99.90;;;17.63;100.00;98996.31;5026853;28;20829;-84
2023/06/24 01:24:40;;;;;;;3.80;3.40;;;17.00;99.90;;;17.52;100.00;98994.28;5025798;28;20544;-84
2023/06/24 01:27:41;;;;;;;3.97;2.70;;;16.90;99.90;;;17.42;100.00;98994.69;5027426;28;20472;-83
2023/06/24 01:30:44;;;;;;;4.73;3.30;;;16.80;99.90;;;17.45;100.00;98999.59;5025756;28;20536;-84
2023/06/24 01:33:25;;;;;;;7.30;3.27;;;16.80;99.90;;;17.40;100.00;98991.47;5026406;28;21101;-85
2023/06/24 01:35:55;;;;;;;4.77;3.57;;;16.70;99.90;;;17.37;100.00;98996.34;5027080;28;20470;-84
2023/06/24 01:38:37;;;;;;;4.93;3.20;;;16.70;99.90;;;17.25;100.00;98998.00;5026444;28;20470;-84
2023/06/24 01:41:07;;;;;;;7.83;3.13;;;16.70;99.90;;;17.22;100.00;98993.94;5027178;28;20466;-85
2023/06/24 01:43:42;;;;;;;5.70;2.87;;;16.60;99.90;;;17.22;100.00;98991.28;5026620;28;20473;-84
2023/06/24 01:46:13;;;;;;;6.27;3.87;;;16.60;99.90;;;17.24;100.00;98993.72;5026475;28;20466;-84
2023/06/24 01:48:46;;;;;;;4.27;3.23;;;16.60;99.90;;;17.24;100.00;98999.84;5028148;28;20462;-84
2023/06/24 01:51:20;;;;;;;7.10;3.57;;;16.60;99.90;;;17.28;100.00;98985.19;5027063;28;21099;-84
2023/06/24 01:53:55;;;;;;;5.10;3.57;;;16.50;99.90;;;17.20;100.00;98997.81;5024538;28;20465;-84
2023/06/24 01:56:27;;;;;;;3.47;3.17;;;16.50;99.90;;;17.08;100.00;98992.31;5025789;28;20461;-84
2023/06/24 01:59:02;;;;;;;4.07;2.90;;;16.40;99.90;;;17.07;100.00;98996.00;5024068;28;20866;-84
2023/06/24 02:01:33;;;;;;;5.10;3.10;;;16.40;99.90;;;17.08;100.00;98989.69;5024211;28;20833;-84
2023/06/24 02:04:08;;;;;;;4.10;3.43;;;16.40;99.90;;;17.09;100.00;98992.13;5023488;28;20466;-85
2023/06/24 02:06:41;;;;;;;6.53;3.60;;;16.40;99.90;;;17.03;100.00;98994.78;5021415;28;20477;-84
2023/06/24 02:09:13;;;;;;;6.80;3.80;;;16.40;99.90;;;17.05;100.00;99000.66;5024566;28;20523;-85
2023/06/24 02:11:43;;;;;;;8.50;3.20;;;16.30;99.90;;;17.04;100.00;99001.69;5024004;28;20462;-85
2023/06/24 02:14:14;;;;;;;5.60;3.40;;;16.30;99.90;;;17.03;100.00;98994.78;5023219;28;20536;-83
2023/06/24 02:16:44;;;;;;;4.50;3.23;;;16.30;99.90;;;16.98;100.00;99002.50;5023989;28;20476;-84
2023/06/24 02:19:18;;;;;;;9.17;3.50;;;16.30;99.90;;;17.00;100.00;98992.56;5025195;28;20466;-84
2023/06/24 02:21:51;;;;;;;3.80;3.20;;;16.30;99.90;;;16.94;100.00;98996.00;5026068;28;20537;-83
2023/06/24 02:24:20;;;;;;;4.07;3.30;;;16.20;99.90;;;16.92;100.00;98992.75;5025798;28;20478;-83
2023/06/24 02:26:51;;;;;;;5.83;3.23;;;16.20;99.90;;;16.87;100.00;98990.72;5024378;28;20817;-84
2023/06/24 02:29:21;;;;;;;5.20;3.63;;;16.20;99.90;;;16.79;100.00;99001.50;5024894;28;20470;-79
2023/06/24 02:31:51;;;;;;;8.40;3.90;;;16.10;99.90;;;16.72;100.00;99008.59;5024575;28;20471;-83
2023/06/24 02:34:21;;;;;;;3.53;3.00;;;16.10;99.90;;;16.67;100.00;99010.22;5022867;28;20477;-84
2023/06/24 02:36:50;;;;;;;4.57;3.37;;;16.10;99.90;;;16.71;100.00;99012.25;5026252;28;20465;-85
2023/06/24 02:39:19;;;;;;;6.80;3.47;;;16.00;99.90;;;16.75;100.00;99007.38;5025666;28;20473;-83
2023/06/24 02:41:49;;;;;;;6.83;2.93;;;16.00;99.90;;;16.69;100.00;99005.56;5026165;28;20474;-79
2023/06/24 02:44:19;;;;;;;5.50;3.20;;;16.00;99.90;;;16.61;100.00;98993.34;5026197;28;20488;-84
2023/06/24 02:46:52;;;;;;;4.80;3.43;;;16.00;99.90;;;16.58;100.00;98999.03;5025299;28;20458;-84
2023/06/24 02:49:24;;;;;;;6.63;3.80;;;15.90;99.90;;;16.58;100.00;98993.75;5026931;28;20462;-79
2023/06/24 02:51:53;;;;;;;6.93;3.63;;;15.90;99.90;;;16.54;100.00;98995.97;5025245;28;20473;-82
2023/06/24 02:54:23;;;;;;;7.70;3.53;;;15.90;99.90;;;16.50;100.00;98986.00;5024282;28;21127;-83
2023/06/24 02:56:56;;;;;;;4.30;3.40;;;15.90;99.90;;;16.42;100.00;98997.56;5022916;28;20458;-83
2023/06/24 02:59:25;;;;;;;4.37;2.90;;;15.80;99.90;;;16.43;100.00;98991.28;5025235;28;21050;-83
2023/06/24 03:01:55;;;;;;;3.67;2.67;;;15.80;99.90;;;16.47;100.00;98991.69;5025771;28;20458;-83
2023/06/24 03:04:27;;;;;;;6.00;3.23;;;15.80;99.90;;;16.41;100.00;98988.03;5026077;28;20459;-83
2023/06/24 03:06:59;;;;;;;8.13;3.63;;;15.80;99.90;;;16.36;100.00;98997.53;5024868;28;20874;-83
2023/06/24 03:09:28;;;;;;;7.93;3.43;;;15.70;99.90;;;16.40;100.00;98996.97;5023798;28;20466;-80
2023/06/24 03:11:56;;;;;;;9.53;6.00;;;15.70;99.90;;;16.38;100.00;98995.53;5023845;28;20474;-84
2023/06/24 03:14:25;;;;;;;5.10;3.17;;;15.70;99.90;;;16.36;100.00;98992.28;5022231;28;20984;-84
2023/06/24 03:17:00;;;;;;;5.90;4.30;;;15.70;99.90;;;16.30;100.00;99003.63;5022527;28;20462;-83
2023/06/24 03:19:34;;;;;;;4.37;3.20;;;15.70;99.90;;;16.28;100.00;99006.47;5024518;28;20476;-83
2023/06/24 03:22:02;;;;;;;7.17;4.17;;;15.60;99.90;;;16.27;100.00;99015.41;5017239;28;20462;-83
2023/06/24 03:24:31;;;;;;;6.30;3.80;;;15.60;99.90;;;16.17;100.00;99014.16;5024868;28;20462;-83
2023/06/24 03:27:01;;;;;;;4.30;3.13;;;15.60;99.90;;;16.17;100.00;99009.72;5022349;28;20477;-82
2023/06/24 03:29:30;;;;;;;11.63;3.80;;;15.50;99.90;;;16.19;100.00;99002.38;5024024;28;20450;-82
2023/06/24 03:31:59;;;;;;;5.83;3.87;;;15.50;99.90;;;16.21;100.00;99005.63;5023211;28;20865;-82
2023/06/24 03:34:29;;;;;;;5.10;3.67;;;15.50;99.90;;;16.16;100.00;99004.63;5024190;28;20536;-82
2023/06/24 03:37:00;;;;;;;4.83;3.37;;;15.50;99.90;;;16.16;100.00;99002.78;5023881;28;20468;-82
2023/06/24 03:39:30;;;;;;;6.60;3.43;;;15.50;99.90;;;16.18;100.00;99007.84;5025224;28;20528;-81
2023/06/24 03:41:58;;;;;;;4.33;3.33;;;15.50;99.90;;;16.22;100.00;99002.00;5027530;28;20532;-82
2023/06/24 03:44:27;;;;;;;5.20;3.93;;;15.50;99.90;;;16.24;100.00;99007.09;5031491;28;20993;-82
2023/06/24 03:46:56;;;;;;;4.33;3.47;;;15.50;99.90;;;16.17;100.00;98999.16;5032516;28;20543;-82
2023/06/24 03:49:24;;;;;;;4.83;3.70;;;15.50;99.90;;;16.13;100.00;99008.47;5032578;28;20481;-83
2023/06/24 03:51:54;;;;;;;4.57;3.20;;;15.50;99.90;;;16.14;100.00;99011.94;5029101;28;20469;-83
2023/06/24 03:54:23;;;;;;;8.07;3.83;;;15.50;99.90;;;16.13;100.00;99005.00;5028236;28;20497;-84
2023/06/24 03:56:52;;;;;;;4.87;3.40;;;15.40;99.90;;;16.10;100.00;99008.88;5028897;28;20488;-80
2023/06/24 03:59:20;;;;;;;4.60;3.60;;;15.40;99.90;;;16.13;100.00;99012.94;5028415;28;20465;-82
2023/06/24 04:01:51;;;;;;;4.80;3.60;;;15.40;99.90;;;16.18;100.00;99010.50;5029843;28;20461;-83
2023/06/24 04:04:20;;;;;;;4.70;3.37;;;15.40;99.90;;;16.19;100.00;99014.78;5029791;28;20501;-83
2023/06/24 04:06:48;;;;;;;4.77;3.40;;;15.40;99.90;;;16.19;100.00;99012.13;5029718;28;20478;-83
2023/06/24 04:09:18;;;;;;;4.80;3.13;;;15.40;99.90;;;16.19;100.00;99015.59;5028406;28;20462;-79
2023/06/24 04:11:47;;;;;;;12.20;7.43;;;15.40;99.90;;;16.17;100.00;99019.44;5029098;28;20526;-82
2023/06/24 04:14:16;;;;;;;4.83;4.00;;;15.50;99.90;;;16.18;100.00;99016.59;5028353;28;20490;-83
2023/06/24 04:16:44;;;;;;;5.60;4.10;;;15.50;99.90;;;16.13;100.00;99019.03;5030180;28;20528;-78
2023/06/24 04:19:13;;;;;;;5.87;4.20;;;15.40;99.90;;;16.13;100.00;99011.09;5026895;28;20588;-83
2023/06/24 04:21:42;;;;;;;4.03;3.27;;;15.40;99.90;;;16.19;100.00;99018.22;5030069;28;20484;-83
2023/06/24 04:24:11;;;;;;;5.23;3.83;;;15.50;99.90;;;16.22;100.00;99017.00;5029223;28;20465;-83
2023/06/24 04:26:41;;;;;;;6.10;3.60;;;15.50;99.90;;;16.26;100.00;99013.78;5027539;28;20481;-83
2023/06/24 04:29:10;;;;;;;4.73;3.90;;;15.50;99.90;;;16.29;100.00;99009.91;5029433;28;20992;-82
2023/06/24 04:31:39;;;;;;;4.33;3.30;;;15.50;99.90;;;16.30;100.00;99008.91;5028299;28;21051;-82
2023/06/24 04:34:08;;;;;;;4.57;3.17;;;15.50;99.90;;;16.34;100.00;99010.97;5027756;28;20525;-83
2023/06/24 04:36:36;;;;;;;7.73;3.60;;;15.60;99.90;;;16.37;100.00;99010.56;5031624;28;20461;-82
2023/06/24 04:39:05;;;;;;;6.33;4.10;;;15.60;99.90;;;16.45;100.00;99012.22;5033031;28;20531;-82
2023/06/24 04:41:33;;;;;;;5.40;3.90;;;15.60;99.90;;;16.47;100.00;99016.25;5032535;28;20458;-82
2023/06/24 04:44:05;;;;;;;6.30;3.77;;;15.70;99.90;;;16.51;100.00;99012.22;5032518;28;20948;-82
2023/06/24 04:46:34;;;;;;;4.00;3.33;;;15.70;99.90;;;16.60;100.00;99016.31;5032568;28;20460;-82
2023/06/24 04:49:03;;;;;;;4.63;3.27;;;15.70;99.90;;;16.63;100.00;99025.66;5033709;28;20552;-82
2023/06/24 04:51:31;;;;;;;4.67;3.90;;;15.70;99.90;;;16.67;100.00;99021.59;5032260;28;20466;-82
2023/06/24 04:54:00;;;;;;;5.13;4.10;;;15.80;99.90;;;16.67;100.00;99023.41;5029375;28;20504;-82
2023/06/24 04:56:29;;;;;;;5.73;3.80;;;15.80;99.90;;;16.64;100.00;99021.19;5030103;28;20465;-82
2023/06/24 04:58:57;;;;;;;4.77;3.30;;;15.80;99.90;;;16.69;100.00;99019.59;5027923;28;20829;-82
2023/06/24 05:01:28;;;;;;;5.40;3.83;;;15.90;99.90;;;16.71;100.00;99028.09;5029163;28;20478;-81
2023/06/24 05:03:56;;;;;;;4.57;3.10;;;15.90;99.90;;;16.70;100.00;99031.75;5028889;28;20466;-82
2023/06/24 05:06:25;;;;;;;4.87;3.33;;;15.90;99.90;;;16.73;100.00;99030.56;5027054;28;20470;-82
2023/06/24 05:08:54;;;;;;;5.13;3.70;;;15.90;99.90;;;16.80;100.00;99026.09;5028968;28;20544;-82
2023/06/24 05:11:22;;;;;;;5.13;3.80;;;15.90;99.90;;;16.85;100.00;99018.34;5029581;28;20507;-82
2023/06/24 05:13:51;;;;;;;5.33;4.10;;;16.00;99.90;;;16.94;100.00;99025.06;5028350;28;20506;-82
2023/06/24 05:16:19;;;;;;;5.87;4.10;;;16.00;99.90;;;16.97;100.00;99022.03;5029169;28;20470;-82
2023/06/24 05:18:50;;;;;;;5.20;3.53;;;16.10;99.90;;;17.02;100.00;99025.69;5028136;28;20458;-81
2023/06/24 05:21:19;;;;;;;5.50;4.10;;;16.10;99.90;;;17.02;100.00;99032.78;5028025;28;20458;-82
2023/06/24 05:23:47;;;;;;;5.03;3.63;;;16.20;99.90;;;17.04;100.00;99030.78;5029061;28;20979;-82
2023/06/24 05:26:16;;;;;;;6.20;3.60;;;16.20;99.90;;;17.05;100.00;99035.84;5028155;28;20478;-82
2023/06/24 05:28:45;;;;;;;6.00;3.77;;;16.30;99.90;;;17.11;100.00;99037.66;5029520;28;20831;-82
2023/06/24 05:31:13;;;;;;;4.60;3.60;;;16.30;99.90;;;17.18;100.00;99036.88;5030526;28;20550;-82
2023/06/24 05:33:42;;;;;;;6.80;3.90;;;16.30;99.90;;;17.24;100.00;99028.91;5028622;28;20478;-82
2023/06/24 05:36:12;;;;;;;5.77;3.90;;;16.40;99.90;;;17.28;100.00;99032.78;5028006;28;20469;-82
2023/06/24 05:38:40;;;;;;;5.70;3.70;;;16.40;99.90;;;17.32;100.00;99036.63;5029549;28;20466;-82
2023/06/24 05:41:09;;;;;;;4.80;3.73;;;16.40;99.90;;;17.36;100.00;99037.03;5028059;28;20466;-81
2023/06/24 05:43:39;;;;;;;5.10;3.90;;;16.50;99.90;;;17.42;100.00;99038.88;5028145;28;20839;-81
2023/06/24 05:46:10;;;;;;;4.80;4.00;;;16.60;99.90;;;17.48;100.00;99041.50;5028048;28;20475;-82
2023/06/24 05:48:39;;;;;;;7.30;3.90;;;16.60;99.90;;;17.53;100.00;99038.22;5027206;28;20466;-82
2023/06/24 05:51:09;;;;;;;10.10;4.37;;;16.70;99.90;;;17.58;100.00;99035.81;5028752;28;20500;-82
2023/06/24 05:53:39;;;;;;;4.63;3.60;;;16.70;99.90;;;17.62;100.00;99036.19;5028920;28;20539;-82
2023/06/24 05:56:08;;;;;;;5.50;4.10;;;16.70;99.90;;;17.66;100.00;99026.84;5028409;28;20501;-82
2023/06/24 05:58:37;;;;;;;4.87;4.20;;;16.80;99.90;;;17.71;100.00;99032.28;5027411;28;20466;-82
2023/06/24 06:01:06;;;;;;;5.90;4.10;;;16.90;99.90;;;17.76;100.00;99028.03;5027756;28;21256;-82
2023/06/24 06:03:35;;;;;;;7.30;3.87;;;16.90;99.90;;;17.83;100.00;99038.59;5026286;28;20485;-82
2023/06/24 06:06:04;;;;;;;5.17;3.87;;;17.00;99.90;;;17.89;100.00;99027.16;5026989;28;20470;-82
2023/06/24 06:08:33;;;;;;;5.77;3.70;;;17.00;99.90;;;17.95;100.00;99027.13;5025975;28;20527;-82
2023/06/24 06:11:04;;;;;;;5.40;3.83;;;17.10;99.90;;;17.99;100.00;99027.53;5027014;28;20573;-83
2023/06/24 06:13:33;;;;;;;6.00;4.17;;;17.10;99.90;;;18.06;100.00;99028.31;5027148;28;20493;-82
2023/06/24 06:16:01;;;;;;;4.40;3.60;;;17.20;99.90;;;18.12;100.00;99022.16;5025915;28;20915;-82
2023/06/24 06:18:30;;;;;;;8.90;5.07;;;17.20;99.90;;;18.18;100.00;99026.63;5027251;28;20477;-82
2023/06/24 06:20:59;;;;;;;5.93;3.73;;;17.30;99.90;;;18.23;100.00;99018.84;5026223;28;20470;-82
2023/06/24 06:23:28;;;;;;;4.77;3.40;;;17.30;99.90;;;18.30;100.00;99018.81;5027212;28;20484;-81
2023/06/24 06:25:57;;;;;;;6.47;4.90;;;17.40;99.90;;;18.36;100.00;99024.06;5025707;28;20477;-81
2023/06/24 06:28:27;;;;;;;5.17;3.60;;;17.50;99.90;;;18.42;100.00;99019.78;5027666;28;20866;-82
2023/06/24 06:30:57;;;;;;;5.60;4.50;;;17.50;99.90;;;18.46;100.00;99021.78;5026716;28;20473;-81
2023/06/24 06:33:26;;;;;;;5.50;4.50;;;17.60;99.90;;;18.54;100.00;99024.19;5026348;28;20462;-82
2023/06/24 06:35:55;;;;;;;4.40;3.27;;;17.60;99.90;;;18.62;100.00;99020.47;5025880;28;20501;-82
2023/06/24 06:38:24;;;;;;;6.53;3.87;;;17.70;99.90;;;18.67;100.00;99025.16;5025668;28;20470;-81
2023/06/24 06:40:53;;;;;;;8.00;4.23;;;17.80;99.90;;;18.73;100.00;99022.44;5026108;28;20481;-81
2023/06/24 06:43:22;;;;;;;5.63;4.10;;;17.80;99.90;;;18.78;100.00;99024.47;5026351;28;20473;-83
2023/06/24 06:45:52;;;;;;;7.60;5.10;;;17.90;99.90;;;18.85;100.00;99022.53;5026326;28;20473;-82
2023/06/24 06:48:21;;;;;;;8.97;5.53;;;18.00;99.90;;;18.92;100.00;99028.59;5027319;28;20470;-81
2023/06/24 06:50:52;;;;;;;12.90;8.27;;;18.00;99.90;;;18.98;100.00;99025.94;5025864;28;20632;-81
2023/06/24 06:53:20;;;;;;;6.53;4.33;;;18.10;99.90;;;19.03;100.00;99020.78;5027129;28;20465;-80
2023/06/24 06:55:49;;;;;;;7.70;4.00;;;18.10;99.90;;;19.10;100.00;99020.72;5027148;28;20497;-81
2023/06/24 06:58:17;;;;;;;7.37;3.80;;;18.20;99.90;;;19.17;100.00;99023.31;5026976;28;20462;-80
2023/06/24 07:00:46;;;;;;;4.80;3.30;;;18.30;99.90;;;19.22;100.00;99024.28;5025973;28;20458;-80
2023/06/24 07:03:17;;;;;;;7.80;4.30;;;18.30;99.90;;;19.29;100.00;99018.91;5025736;28;20467;-80
2023/06/24 07:05:46;;;;;;;7.93;4.87;;;18.40;99.90;;;19.36;100.00;99019.66;5026475;28;20466;-80
2023/06/24 07:08:15;;;;;;;5.47;3.73;;;18.50;99.90;;;19.44;100.00;99016.75;5025763;28;20475;-80
2023/06/24 07:10:44;;;;;;;5.50;3.53;;;18.60;99.90;;;19.50;100.00;99016.69;5025865;28;20968;-80
2023/06/24 07:13:13;;;;;;;5.20;3.80;;;18.60;99.90;;;19.55;100.00;99014.19;5025385;28;20481;-81
2023/06/24 07:15:41;;;;;;;6.50;4.07;;;18.70;99.90;;;19.63;100.00;99020.22;5025222;28;20490;-81
2023/06/24 07:18:10;;;;;;;7.13;3.57;;;18.80;99.90;;;19.71;100.00;99017.28;5026200;28;21461;-80
2023/06/24 07:20:40;;;;;;;6.60;3.80;;;18.90;99.90;;;19.78;100.00;99007.41;5026690;28;20462;-80
2023/06/24 07:23:11;;;;;;;5.83;4.03;;;18.90;99.90;;;19.84;100.00;99001.19;5024746;28;20467;-81
2023/06/24 07:25:40;;;;;;;5.37;3.50;;;19.00;99.90;;;19.92;100.00;99000.91;5025526;28;20477;-81
2023/06/24 07:28:09;;;;;;;5.00;4.20;;;19.00;99.90;;;19.99;100.00;98993.66;5026180;28;20464;-80
2023/06/24 07:30:38;;;;;;;5.03;3.77;;;19.10;99.90;;;20.05;100.00;98993.59;5027059;28;20466;-80
2023/06/24 07:33:07;;;;;;;5.53;3.90;;;19.20;99.90;;;20.14;100.00;98995.91;5026650;28;20493;-80
2023/06/24 07:35:35;;;;;;;4.40;3.43;;;19.30;99.90;;;20.19;100.00;98991.56;5026787;28;20879;-81
2023/06/24 07:38:06;;;;;;;5.90;4.27;;;19.40;99.90;;;20.27;100.00;98999.22;5025405;28;20474;-81
2023/06/24 07:40:35;;;;;;;5.13;3.80;;;19.50;99.90;;;20.34;100.00;98997.28;5025854;28;20992;-81
2023/06/24 07:43:04;;;;;;;7.50;4.40;;;19.50;99.90;;;20.42;100.00;98999.63;5025444;28;21226;-80
2023/06/24 07:45:36;;;;;;;5.13;4.00;;;19.60;99.90;;;20.51;100.00;98987.63;5024642;28;20469;-80
2023/06/24 07:48:06;;;;;;;7.17;5.17;;;19.70;99.90;;;20.59;100.00;98989.16;5025516;28;20497;-80
2023/06/24 07:50:35;;;;;;;11.23;6.07;;;19.80;99.90;;;20.70;100.00;98995.53;5024938;28;20470;-80
2023/06/24 07:53:05;;;;;;;8.63;5.20;;;19.90;99.90;;;20.79;100.00;98994.19;5026516;28;20883;-80
2023/06/24 07:55:35;;;;;;;6.23;4.57;;;20.00;99.90;;;20.86;100.00;98989.56;5025675;28;20497;-80
2023/06/24 07:58:05;;;;;;;9.17;4.67;;;20.10;99.90;;;20.97;100.00;98999.38;5025634;28;20814;-80
2023/06/24 08:00:34;;;;;;;10.93;5.73;;;20.20;99.90;;;21.03;100.00;98995.81;5027418;28;20825;-80
2023/06/24 08:03:06;;;;;;;10.40;5.63;;;20.30;99.30;;;21.08;100.00;98991.41;5025783;28;21066;-81
2023/06/24 08:05:35;;;;;;;8.23;5.20;;;20.30;98.80;;;21.16;97.11;98984.97;5024221;28;20472;-80
2023/06/24 08:08:07;;;;;;;8.20;4.73;;;20.40;98.40;;;21.23;97.30;98985.66;5025730;28;20604;-81
2023/06/24 08:10:36;;;;;;;5.50;4.20;;;20.50;98.70;;;21.31;97.63;98989.84;5024515;28;20836;-81
2023/06/24 08:13:04;;;;;;;7.07;4.30;;;20.50;98.80;;;21.36;97.36;98985.41;5025533;28;20493;-81
2023/06/24 08:15:33;;;;;;;8.63;4.67;;;20.60;98.60;;;21.41;97.77;98972.22;5024358;28;20505;-81
2023/06/24 08:18:02;;;;;;;9.80;4.30;;;20.60;98.80;;;21.47;97.97;98976.63;5024990;28;20500;-80
2023/06/24 08:20:30;;;;;;;5.47;3.57;;;20.70;98.90;;;21.52;98.29;98976.72;5025773;28;20470;-80
2023/06/24 08:22:59;;;;;;;7.37;4.40;;;20.70;98.90;;;21.57;98.16;98976.00;5025444;28;20838;-81
2023/06/24 08:25:30;;;;;;;7.70;3.70;;;20.70;98.60;;;21.65;94.24;98966.84;5025916;28;20466;-81
2023/06/24 08:27:58;;;;;;;7.83;4.00;;;20.90;98.00;;;21.71;91.51;98973.91;5026758;28;20968;-80
2023/06/24 08:30:27;;;;;;;6.03;4.10;;;21.00;97.80;;;21.77;92.65;98968.44;5029096;28;20468;-80
2023/06/24 08:32:57;;;;;;;7.57;4.63;;;21.00;97.60;;;21.80;91.78;98964.47;5029126;28;20548;-80
2023/06/24 08:35:26;;;;;;;5.37;3.90;;;21.00;97.30;;;21.86;91.61;98968.88;5029507;28;20493;-80
2023/06/24 08:37:55;;;;;;;5.10;3.43;;;21.00;97.40;;;21.91;91.58;98961.81;5028789;28;20535;-80
2023/06/24 08:40:24;;;;;;;8.17;4.00;;;21.10;97.50;;;21.99;89.67;98952.63;5029323;28;20470;-80
2023/06/24 08:42:54;;;;;;;5.50;3.50;;;21.20;97.30;;;22.05;87.48;98963.16;5028950;28;20462;-81
2023/06/24 08:45:23;;;;;;;7.30;3.50;;;21.30;96.90;;;22.12;82.62;98952.34;5028714;28;20457;-81
2023/06/24 08:47:54;;;;;;;3.97;2.80;;;21.40;95.80;;;22.19;84.69;98953.00;5028786;28;20473;-81
2023/06/24 08:50:31;;;;;;;5.13;2.87;;;21.40;95.90;;;22.26;83.89;98952.84;5028262;28;20836;-81
2023/06/24 08:53:03;;;;;;;3.07;2.50;;;21.50;95.80;;;22.32;84.67;98958.03;5029946;28;20596;-80
2023/06/24 08:55:40;;;;;;;5.23;3.00;;;21.50;96.10;;;22.38;84.84;98967.75;5029915;28;20486;-80
2023/06/24 08:58:11;;;;;;;3.97;2.73;;;21.50;96.20;;;22.43;83.83;98967.03;5029842;28;20465;-81
2023/06/24 09:00:41;;;;;;;3.60;2.50;;;21.60;95.70;;;22.47;82.21;98965.50;5028874;28;20949;-81
2023/06/24 09:03:10;;;;;;;5.57;3.03;;;21.60;95.20;;;22.54;80.98;98960.81;5028507;28;20473;-80
2023/06/24 09:05:38;;;;;;;4.47;2.97;;;21.70;95.00;;;22.60;79.56;98954.50;5028501;28;20855;-81
2023/06/24 09:08:07;;;;;;;6.50;2.93;;;21.80;95.10;;;22.65;79.29;98957.28;5028073;28;20478;-81
2023/06/24 09:10:37;;;;;;;4.80;3.10;;;21.90;95.10;;;22.71;79.90;98960.84;5026736;28;20462;-81
2023/06/24 09:13:07;;;;;;;6.67;2.80;;;21.90;94.70;;;22.73;79.42;98954.25;5027245;28;20508;-81
2023/06/24 09:15:41;;;;;;;6.87;3.03;;;21.90;94.40;;;22.79;78.95;98952.44;5027999;28;21019;-80
2023/06/24 09:18:10;;;;;;;3.93;3.23;;;22.00;94.60;;;22.84;78.97;98950.66;5028330;28;20497;-81
2023/06/24 09:20:44;;;;;;;7.53;2.90;;;22.00;94.50;;;22.91;78.27;98945.16;5027631;28;20470;-81
2023/06/24 09:23:13;;;;;;;3.83;2.90;;;22.10;94.60;;;22.94;79.02;98932.13;5029129;28;20474;-80
2023/06/24 09:25:42;;;;;;;5.13;3.17;;;22.10;95.10;;;22.98;78.52;98935.13;5027441;28;20472;-81
2023/06/24 09:28:14;;;;;;;5.93;3.60;;;22.10;94.70;;;23.08;74.70;98925.41;5028401;28;20478;-81
2023/06/24 09:30:44;;;;;;;5.63;4.33;;;22.50;93.90;;;23.14;75.30;98926.28;5028017;28;20493;-80
2023/06/24 09:33:13;;;;;;;4.80;3.40;;;22.50;94.30;;;23.20;75.88;98927.97;5028349;28;20935;-81
2023/06/24 09:35:45;;;;;;;4.07;2.90;;;22.50;94.20;;;23.26;75.51;98920.81;5027582;28;20470;-81
2023/06/24 09:38:13;;;;;;;3.70;3.00;;;22.50;94.30;;;23.35;76.06;98914.81;5028059;28;21071;-80
2023/06/24 09:40:43;;;;;;;8.70;3.27;;;22.60;94.30;;;23.46;75.25;98905.91;5025891;28;20481;-81
2023/06/24 09:43:21;;;;;;;4.43;3.60;;;22.70;94.30;;;23.55;73.85;98911.63;5027967;28;20464;-81
2023/06/24 09:45:52;;;;;;;5.83;3.50;;;22.80;93.60;;;23.61;71.50;98907.13;5026932;28;21007;-81
2023/06/24 09:48:21;;;;;;;3.40;3.00;;;23.00;93.20;;;23.66;72.52;98899.19;5028556;28;21252;-80
2023/06/24 09:50:50;;;;;;;3.93;2.97;;;22.90;93.20;;;23.73;72.11;98894.47;5028512;28;20465;-83
2023/06/24 09:53:20;;;;;;;5.40;3.63;;;22.90;92.90;;;23.79;71.45;98898.78;5028179;28;20894;-80
2023/06/24 09:55:52;;;;;;;7.03;3.53;;;23.10;93.20;;;23.84;71.29;98896.19;5027823;28;20546;-80
2023/06/24 09:58:23;;;;;;;5.00;3.37;;;23.10;92.90;;;23.92;71.25;98893.03;5029005;28;20450;-80
2023/06/24 10:00:55;;;;;;;5.20;3.13;;;23.20;93.30;;;23.99;70.04;98889.13;5028134;28;20492;-80
2023/06/24 10:03:24;;;;;;;3.40;2.60;;;23.30;92.80;;;24.11;68.58;98888.97;5027934;28;20477;-81
2023/06/24 10:05:53;;;;;;;3.87;3.10;;;23.40;92.50;;;24.23;67.70;98891.50;5026632;28;20556;-80
2023/06/24 10:08:22;;;;;;;5.13;3.30;;;23.50;92.10;;;24.31;66.94;98889.16;5027786;28;20479;-80
2023/06/24 10:10:50;;;;;;;4.67;3.53;;;23.60;91.70;;;24.35;65.85;98887.59;5027084;28;20470;-81
2023/06/24 10:13:19;;;;;;;6.83;3.47;;;23.60;91.90;;;24.41;66.02;98889.25;5025736;28;20486;-80
2023/06/24 10:15:50;;;;;;;5.07;3.20;;;23.70;91.60;;;24.48;65.46;98879.16;5026914;28;21022;-81
2023/06/24 10:18:37;;;;;;;5.50;3.17;;;23.70;91.70;;;24.55;65.52;98879.72;5027225;28;20462;-80
2023/06/24 10:21:08;;;;;;;3.80;3.13;;;23.80;92.00;;;24.60;65.01;98872.81;5027410;28;20532;-81
2023/06/24 10:23:43;;;;;;;4.40;2.80;;;23.80;91.30;;;24.69;64.46;98881.97;5026256;28;20873;-80
2023/06/24 10:26:23;;;;;;;5.00;3.27;;;24.00;91.40;;;24.77;62.42;98868.09;5026412;28;20493;-81